Alpine, Texas
Current Conditions -  °F | °C
As of 10:55 AM on Thursday 23 Oct 2014 (Local Time) from KE38 Reporting Station
Clear Clear  
Wind Chill: 19°   Ceiling: Unl
Heat Index: 19°   Visibility: 10mi
Dew Point: 14°   Wind: 8mph
Humidity: 71%   Direction: 260°W
Pressure: 30.3"   Gusts: NA
Location:  30.36°N, 103.66°W
Report Text: KE38 231555Z AUTO 26007KT 10SM CLR 19/14 A3030 RMK AO2 T01940140
Loading
Personal Weather Stations






























Interactive Weather Map
Tropical Storm Tracking
New forecast layout! Learn more

10-Day Weather Forecast

Advertisements
Track Severe Weather on mobile